Time;durP1;ratioP1;P1;durP2;ratioP2;P2;SDS_P1;SDS_P2;PMS_P1;PMS_P2;Temp;Humidity;BMP_temperature;BMP_pressure;BME280_temperature;BME280_humidity;BME280_pressure;Samples;Min_cycle;Max_cycle;Signal;HPM_P1;HPM_P2
2022/07/09 00:01:36;;;;;;;37.58;20.85;;;;;;;14.33;96.67;102736.91;5112754;28;20031;-47
2022/07/09 00:04:01;;;;;;;32.72;21.05;;;;;;;14.32;96.72;102732.56;5112739;28;20048;-48
2022/07/09 00:06:27;;;;;;;31.80;19.70;;;;;;;14.27;96.40;102729.75;5113459;28;20504;-47
2022/07/09 00:08:52;;;;;;;35.65;20.70;;;;;;;14.26;96.60;102729.69;5112824;28;20032;-47
2022/07/09 00:11:17;;;;;;;33.42;20.10;;;;;;;14.24;95.98;102733.91;5113008;28;20027;-43
2022/07/09 00:13:42;;;;;;;41.28;24.23;;;;;;;14.22;97.42;102736.44;5113182;28;20428;-44
2022/07/09 00:16:08;;;;;;;43.85;24.90;;;;;;;14.23;98.16;102732.13;5112505;28;20039;-47
2022/07/09 00:18:33;;;;;;;50.80;24.38;;;;;;;14.22;97.97;102736.44;5113189;28;20462;-48
2022/07/09 00:20:58;;;;;;;37.05;23.65;;;;;;;14.18;97.48;102738.81;5113432;28;20034;-48
2022/07/09 00:23:24;;;;;;;38.08;21.73;;;;;;;14.13;97.08;102731.72;5112529;28;20031;-46
2022/07/09 00:25:49;;;;;;;38.88;22.38;;;;;;;14.06;97.35;102741.75;5112930;28;20020;-47
2022/07/09 00:28:14;;;;;;;40.15;21.83;;;;;;;13.98;97.69;102736.22;5112999;28;20031;-48
2022/07/09 00:30:39;;;;;;;43.80;24.83;;;;;;;13.97;98.10;102737.94;5112553;28;20033;-45
2022/07/09 00:33:05;;;;;;;39.03;24.35;;;;;;;13.90;98.28;102737.56;5112679;28;20421;-47
2022/07/09 00:35:30;;;;;;;43.45;24.92;;;;;;;13.87;98.77;102737.44;5112438;28;20032;-47
2022/07/09 00:37:55;;;;;;;35.20;21.55;;;;;;;13.76;97.80;102734.34;5113202;28;20383;-46
2022/07/09 00:40:21;;;;;;;38.28;20.98;;;;;;;13.65;97.02;102731.25;5112527;28;20118;-48
2022/07/09 00:42:46;;;;;;;34.92;22.67;;;;;;;13.54;97.25;102732.44;5112377;28;20498;-46
2022/07/09 00:45:11;;;;;;;39.85;23.48;;;;;;;13.45;97.43;102728.63;5112835;28;20368;-43
2022/07/09 00:47:37;;;;;;;43.28;27.10;;;;;;;13.54;99.75;102732.44;5112557;28;20471;-47
2022/07/09 00:50:03;;;;;;;44.05;26.38;;;;;;;13.52;99.93;102734.97;5112370;28;20111;-44
2022/07/09 00:52:30;;;;;;;43.55;24.98;;;;;;;13.49;100.00;102727.94;5113000;28;20023;-47
2022/07/09 00:54:59;;;;;;;39.13;24.50;;;;;;;13.45;99.47;102731.19;5112772;28;20052;-47
2022/07/09 00:57:24;;;;;;;42.70;25.77;;;;;;;13.40;99.46;102729.19;5113323;28;20035;-45
2022/07/09 00:59:51;;;;;;;50.20;27.58;;;;;;;13.42;100.00;102727.56;5116474;28;20053;-46
2022/07/09 01:02:18;;;;;;;43.35;25.50;;;;;;;13.36;99.85;102727.22;5116543;28;20348;-46
2022/07/09 01:04:43;;;;;;;45.47;26.77;;;;;;;13.37;99.92;102732.50;5115902;28;20044;-47
2022/07/09 01:07:09;;;;;;;46.90;24.23;;;;;;;13.39;99.56;102722.22;5116485;28;20088;-47
2022/07/09 01:09:34;;;;;;;46.58;25.80;;;;;;;13.38;99.96;102726.53;5116724;28;20477;-46
2022/07/09 01:11:59;;;;;;;47.75;27.52;;;;;;;13.41;100.00;102726.66;5115904;28;20042;-46
2022/07/09 01:14:25;;;;;;;41.20;26.08;;;;;;;13.36;99.49;102722.94;5116286;28;20023;-46
2022/07/09 01:16:59;;;;;;;47.03;28.02;;;;;;;13.34;100.00;102715.09;5116477;28;20055;-47
2022/07/09 01:19:25;;;;;;;49.92;28.90;;;;;;;13.34;100.00;102715.09;5115939;28;20024;-45
2022/07/09 01:21:50;;;;;;;45.05;27.45;;;;;;;13.32;100.00;102711.56;5116315;28;20026;-46
2022/07/09 01:24:16;;;;;;;54.83;29.05;;;;;;;13.35;100.00;102708.22;5116216;28;20046;-48
2022/07/09 01:26:41;;;;;;;56.30;29.50;;;;;;;13.34;100.00;102707.31;5115690;28;20161;-47
2022/07/09 01:29:07;;;;;;;50.30;29.20;;;;;;;13.35;100.00;102700.47;5115738;28;20493;-46
2022/07/09 01:31:32;;;;;;;48.35;27.48;;;;;;;13.36;100.00;102707.38;5116271;28;20027;-45
2022/07/09 01:33:57;;;;;;;65.82;33.22;;;;;;;13.46;100.00;102704.47;5115832;28;20077;-47
2022/07/09 01:36:22;;;;;;;58.20;30.85;;;;;;;13.47;100.00;102695.00;5115847;28;20038;-46
2022/07/09 01:38:48;;;;;;;53.20;29.90;;;;;;;13.48;100.00;102695.06;5115647;28;20383;-47
2022/07/09 01:41:13;;;;;;;54.03;29.20;;;;;;;13.42;100.00;102693.91;5115818;28;20089;-45
2022/07/09 01:43:38;;;;;;;42.17;24.60;;;;;;;13.30;100.00;102694.19;5115552;28;20031;-48
2022/07/09 01:46:04;;;;;;;60.03;27.70;;;;;;;13.22;100.00;102698.06;5115146;28;20491;-47
2022/07/09 01:48:29;;;;;;;57.28;29.35;;;;;;;13.20;100.00;102694.53;5115968;28;20020;-48
2022/07/09 01:50:55;;;;;;;60.72;30.40;;;;;;;13.16;100.00;102693.50;5115764;28;20055;-47
2022/07/09 01:53:20;;;;;;;55.17;31.42;;;;;;;13.18;100.00;102687.59;5115228;28;20023;-47
2022/07/09 01:55:45;;;;;;;69.07;31.33;;;;;;;13.19;100.00;102685.88;5115709;28;20069;-48
2022/07/09 01:58:11;;;;;;;54.90;32.00;;;;;;;13.22;100.00;102685.13;5115296;28;20027;-47
2022/07/09 02:00:36;;;;;;;69.40;32.95;;;;;;;13.22;100.00;102686.03;5115169;28;20463;-48
2022/07/09 02:03:01;;;;;;;52.35;29.48;;;;;;;13.17;100.00;102680.63;5115258;28;20155;-47
2022/07/09 02:05:27;;;;;;;46.97;27.25;;;;;;;13.09;100.00;102688.81;5115489;28;20082;-44
2022/07/09 02:07:52;;;;;;;50.75;28.30;;;;;;;13.01;100.00;102683.28;5115069;28;20031;-47
2022/07/09 02:10:17;;;;;;;50.55;27.70;;;;;;;12.96;100.00;102684.75;5114251;28;20020;-47
2022/07/09 02:12:42;;;;;;;52.33;28.60;;;;;;;12.92;100.00;102682.81;5115350;28;20492;-50
2022/07/09 02:15:10;;;;;;;50.10;28.98;;;;;;;12.90;100.00;102679.25;5114926;28;20031;-46
2022/07/09 02:17:35;;;;;;;;;;;;;;;12.95;99.85;102678.69;5115621;28;20031;-48
2022/07/09 02:20:01;;;;;;;41.47;23.48;;;;;;;12.76;99.87;102682.06;5115206;28;19912;-48
2022/07/09 02:22:27;;;;;;;38.38;24.10;;;;;;;12.64;99.79;102677.16;5114518;28;20436;-47
2022/07/09 02:24:52;;;;;;;39.45;26.13;;;;;;;12.54;99.78;102679.19;5115094;28;20020;-44
2022/07/09 02:27:17;;;;;;;48.80;27.38;;;;;;;12.47;100.00;102683.16;5114963;28;20531;-44
2022/07/09 02:29:42;;;;;;;50.80;27.80;;;;;;;12.45;100.00;102677.03;5114394;28;20050;-47
2022/07/09 02:32:10;;;;;;;55.08;29.98;;;;;;;12.40;100.00;102671.63;5114977;28;20421;-46
2022/07/09 02:34:36;;;;;;;51.28;27.08;;;;;;;12.36;100.00;102674.88;5114714;28;20466;-50
2022/07/09 02:37:01;;;;;;;51.33;28.13;;;;;;;12.37;100.00;102668.00;5114224;28;20023;-45
2022/07/09 02:39:26;;;;;;;50.78;28.27;;;;;;;12.30;100.00;102664.19;5114545;28;20034;-47
2022/07/09 02:41:52;;;;;;;43.10;26.73;;;;;;;12.25;100.00;102663.97;5114884;28;20087;-45
2022/07/09 02:44:17;;;;;;;53.78;29.48;;;;;;;12.28;100.00;102658.09;5114558;28;20034;-46
2022/07/09 02:46:42;;;;;;;66.97;32.85;;;;;;;12.38;100.00;102655.13;5114657;28;20375;-47
2022/07/09 02:49:08;;;;;;;50.55;28.45;;;;;;;12.37;100.00;102655.06;5114159;28;20442;-47
2022/07/09 02:51:33;;;;;;;51.83;28.67;;;;;;;12.34;100.00;102650.63;5114599;28;20081;-46
2022/07/09 02:53:58;;;;;;;50.75;28.05;;;;;;;12.36;100.00;102649.00;5114384;28;20019;-46
2022/07/09 02:56:23;;;;;;;52.38;27.98;;;;;;;12.34;100.00;102646.34;5113957;28;20067;-47
2022/07/09 02:58:49;;;;;;;51.00;28.52;;;;;;;12.36;100.00;102643.84;5114405;28;20034;-46
2022/07/09 03:01:14;;;;;;;55.17;29.45;;;;;;;12.35;100.00;102647.22;5113914;28;20376;-47
2022/07/09 03:03:39;;;;;;;60.05;33.58;;;;;;;12.39;100.00;102649.16;5113805;28;20137;-47
2022/07/09 03:06:07;;;;;;;56.15;30.38;;;;;;;12.36;100.00;102649.00;5114076;28;20019;-48
2022/07/09 03:08:33;;;;;;;59.30;33.67;;;;;;;12.46;100.00;102651.25;5114234;28;20470;-47
2022/07/09 03:10:58;;;;;;;73.07;36.08;;;;;;;12.49;100.00;102651.41;5114219;28;20020;-46
2022/07/09 03:13:23;;;;;;;64.93;32.72;;;;;;;12.44;100.00;102652.00;5113817;28;20510;-47
2022/07/09 03:15:49;;;;;;;46.28;24.83;;;;;;;12.37;100.00;102653.38;5114590;28;20024;-47
2022/07/09 03:18:14;;;;;;;50.92;31.30;;;;;;;12.29;100.00;102646.91;5113424;28;20023;-48
2022/07/09 03:20:40;;;;;;;61.25;33.17;;;;;;;12.17;100.00;102645.50;5113554;28;20027;-45
2022/07/09 03:23:05;;;;;;;63.35;29.98;;;;;;;12.09;100.00;102641.59;5113883;28;20059;-47
2022/07/09 03:25:31;;;;;;;60.97;30.73;;;;;;;12.03;100.00;102641.28;5113262;28;20024;-46
2022/07/09 03:27:56;;;;;;;56.17;32.58;;;;;;;11.98;100.00;102642.72;5113646;28;20057;-42
2022/07/09 03:30:23;;;;;;;52.30;31.95;;;;;;;11.95;100.00;102650.28;5113555;28;20073;-47
2022/07/09 03:32:48;;;;;;;50.22;29.63;;;;;;;11.86;100.00;102654.19;5112892;28;20513;-47
2022/07/09 03:35:14;;;;;;;55.95;30.80;;;;;;;11.85;100.00;102647.22;5113798;28;20028;-47
2022/07/09 03:37:39;;;;;;;54.03;28.88;;;;;;;11.80;100.00;102653.84;5113591;28;20035;-48
2022/07/09 03:40:05;;;;;;;55.25;32.47;;;;;;;11.73;100.00;102654.31;5112824;28;20508;-46
2022/07/09 03:42:30;;;;;;;47.40;28.35;;;;;;;11.75;100.00;102655.28;5113165;28;20024;-48
2022/07/09 03:44:56;;;;;;;47.97;28.80;;;;;;;11.81;100.00;102650.47;5113564;28;20034;-47
2022/07/09 03:47:21;;;;;;;61.63;32.50;;;;;;;11.79;100.00;102652.06;5113089;28;20028;-43
2022/07/09 03:49:46;;;;;;;74.18;37.97;;;;;;;11.90;100.00;102644.00;5113135;28;20030;-48
2022/07/09 03:52:11;;;;;;;71.80;36.17;;;;;;;11.92;100.00;102643.28;5113398;28;20027;-47
2022/07/09 03:54:37;;;;;;;59.72;32.03;;;;;;;11.90;100.00;102644.00;5112882;28;20019;-47
2022/07/09 03:57:02;;;;;;;56.40;29.42;;;;;;;11.89;100.00;102642.22;5112954;28;20042;-46
2022/07/09 03:59:27;;;;;;;52.95;29.67;;;;;;;11.90;100.00;102649.16;5112808;28;20444;-47
2022/07/09 04:01:53;;;;;;;56.60;32.47;;;;;;;11.91;100.00;102635.44;5113345;28;20039;-43
2022/07/09 04:04:18;;;;;;;60.13;32.15;;;;;;;11.94;100.00;102640.75;5112855;28;20035;-47
2022/07/09 04:06:43;;;;;;;71.93;38.45;;;;;;;12.00;100.00;102644.59;5112772;28;20028;-47
2022/07/09 04:09:10;;;;;;;81.88;41.78;;;;;;;12.05;100.00;102644.84;5112895;28;20043;-44
2022/07/09 04:11:35;;;;;;;63.90;34.67;;;;;;;12.04;100.00;102644.75;5112985;28;20112;-46
2022/07/09 04:14:01;;;;;;;61.72;33.65;;;;;;;12.03;100.00;102643.84;5112774;28;20061;-45
2022/07/09 04:16:28;;;;;;;66.88;36.65;;;;;;;12.13;100.00;102640.06;5113026;28;20084;-47
2022/07/09 04:18:53;;;;;;;81.53;41.28;;;;;;;12.21;100.00;102637.88;5113305;28;20118;-48
2022/07/09 04:21:21;;;;;;;79.38;40.35;;;;;;;12.26;100.00;102637.28;5112520;28;20134;-46
2022/07/09 04:23:47;;;;;;;72.22;37.50;;;;;;;12.27;100.00;102638.19;5112707;28;20360;-45
2022/07/09 04:26:12;;;;;;;84.53;41.58;;;;;;;12.32;100.00;102636.75;5112847;28;20593;-47
2022/07/09 04:28:37;;;;;;;118.78;53.47;;;;;;;12.40;100.00;102627.66;5112672;28;20375;-46
2022/07/09 04:31:03;;;;;;;113.55;53.25;;;;;;;12.49;100.00;102630.72;5112739;28;20035;-43
2022/07/09 04:33:28;;;;;;;78.90;41.72;;;;;;;12.45;100.00;102633.09;5116178;28;20412;-47
2022/07/09 04:35:54;;;;;;;79.38;42.47;;;;;;;12.48;100.00;102640.97;5116831;28;20103;-45
2022/07/09 04:38:19;;;;;;;88.22;45.67;;;;;;;12.49;100.00;102640.19;5116936;28;20110;-47
2022/07/09 04:40:44;;;;;;;89.28;45.42;;;;;;;12.52;100.00;102637.75;5116934;28;20055;-44
2022/07/09 04:43:10;;;;;;;95.95;47.25;;;;;;;12.59;100.00;102636.34;5116617;28;20459;-48
2022/07/09 04:45:35;;;;;;;105.28;49.97;;;;;;;12.66;100.00;102638.44;5116836;28;20024;-46
2022/07/09 04:48:01;;;;;;;103.80;51.63;;;;;;;12.79;100.00;102640.81;5116994;28;20476;-47
2022/07/09 04:50:27;;;;;;;128.20;56.63;;;;;;;12.98;100.00;102646.91;5116299;28;20382;-46
2022/07/09 04:52:52;;;;;;;128.07;57.05;;;;;;;13.16;100.00;102637.41;5116838;28;20019;-47
2022/07/09 04:55:18;;;;;;;138.02;60.97;;;;;;;13.37;100.00;102633.22;5116663;28;20443;-47
2022/07/09 04:57:43;;;;;;;189.35;76.00;;;;;;;13.63;100.00;102637.00;5116106;28;20036;-47
2022/07/09 05:00:10;;;;;;;190.75;79.03;;;;;;;13.80;100.00;102636.09;5116520;28;20028;-48
2022/07/09 05:02:36;;;;;;;167.50;71.60;;;;;;;13.89;100.00;102635.63;5116619;28;20091;-47
2022/07/09 05:05:03;;;;;;;166.48;72.28;;;;;;;14.03;100.00;102620.66;5116056;28;20407;-47
2022/07/09 05:07:29;;;;;;;169.65;76.60;;;;;;;14.13;100.00;102627.13;5116338;28;20020;-47
2022/07/09 05:09:54;;;;;;;154.05;74.65;;;;;;;14.18;100.00;102624.72;5115919;28;20024;-47
2022/07/09 05:12:19;;;;;;;171.23;75.20;;;;;;;14.29;100.00;102626.06;5116148;28;20026;-47
2022/07/09 05:14:45;;;;;;;180.02;80.38;;;;;;;14.36;100.00;102625.53;5116624;28;20034;-46
2022/07/09 05:17:10;;;;;;;179.35;76.18;;;;;;;14.47;100.00;102619.09;5115808;28;20046;-47
2022/07/09 05:19:35;;;;;;;173.75;78.28;;;;;;;14.65;100.00;102623.28;5116094;28;20101;-46
2022/07/09 05:22:01;;;;;;;195.15;84.10;;;;;;;14.81;100.00;102619.63;5116311;28;20038;-48
2022/07/09 05:24:26;;;;;;;164.20;75.20;;;;;;;14.87;100.00;102617.25;5115684;28;20023;-48
2022/07/09 05:26:52;;;;;;;151.75;69.95;;;;;;;14.97;100.00;102621.13;5116244;28;20034;-47
2022/07/09 05:29:17;;;;;;;148.90;70.32;;;;;;;14.98;100.00;102625.50;5116273;28;20023;-48
2022/07/09 05:31:42;;;;;;;160.48;73.35;;;;;;;15.08;100.00;102625.03;5115624;28;20035;-49
2022/07/09 05:34:08;;;;;;;162.93;72.57;;;;;;;15.17;100.00;102623.63;5115753;28;20032;-47
2022/07/09 05:36:33;;;;;;;161.15;72.35;;;;;;;15.27;100.00;102617.94;5115926;28;20030;-48
2022/07/09 05:39:00;;;;;;;148.10;68.97;;;;;;;15.34;100.00;102622.56;5115510;28;20062;-47
2022/07/09 05:41:25;;;;;;;184.73;83.72;;;;;;;15.50;100.00;102623.16;5115514;28;20107;-47
2022/07/09 05:43:52;;;;;;;141.57;67.93;;;;;;;15.47;100.00;102624.81;5114670;28;20074;-48
2022/07/09 05:46:18;;;;;;;146.25;66.60;;;;;;;15.54;100.00;102623.31;5115399;28;20020;-48
2022/07/09 05:48:43;;;;;;;136.98;65.03;;;;;;;15.61;100.00;102619.25;5115351;28;20405;-47
2022/07/09 05:51:08;;;;;;;136.13;64.28;;;;;;;15.63;100.00;102612.38;5116059;28;20020;-47
2022/07/09 05:53:34;;;;;;;138.15;63.85;;;;;;;15.63;100.00;102612.38;5115092;28;20024;-46
2022/07/09 05:55:59;;;;;;;129.40;63.33;;;;;;;15.69;100.00;102610.00;5115363;28;20036;-45
2022/07/09 05:58:24;;;;;;;147.85;66.13;;;;;;;15.84;100.00;102619.22;5115763;28;20047;-46
2022/07/09 06:00:50;;;;;;;140.02;66.78;;;;;;;16.00;100.00;102613.75;5115116;28;20037;-48
2022/07/09 06:03:15;;;;;;;134.25;62.67;;;;;;;16.05;100.00;102620.00;5115165;28;20040;-47
2022/07/09 06:05:40;;;;;;;129.35;62.25;;;;;;;16.07;98.56;102609.66;5115356;28;20027;-47
2022/07/09 06:08:06;;;;;;;127.72;63.58;;;;;;;16.12;98.33;102618.50;5114716;28;20440;-44
2022/07/09 06:10:31;;;;;;;125.20;66.88;;;;;;;16.17;97.69;102624.75;5115110;28;20544;-47
2022/07/09 06:12:56;;;;;;;124.32;64.88;;;;;;;16.26;97.52;102619.84;5115575;28;20027;-47
2022/07/09 06:15:22;;;;;;;122.25;63.17;;;;;;;16.33;96.71;102626.16;5115015;28;20019;-47
2022/07/09 06:17:50;;;;;;;125.57;65.13;;;;;;;16.36;96.11;102620.16;5115082;28;20028;-47
2022/07/09 06:20:16;;;;;;;129.15;65.90;;;;;;;16.41;96.16;102635.13;5114364;28;20038;-47
2022/07/09 06:22:41;;;;;;;127.93;69.35;;;;;;;16.58;98.82;102638.28;5114908;28;20016;-48
2022/07/09 06:25:07;;;;;;;131.68;66.97;;;;;;;16.82;99.31;102641.66;5114863;28;20102;-47
2022/07/09 06:27:32;;;;;;;127.60;64.43;;;;;;;16.96;96.91;102635.19;5114582;28;20485;-47
2022/07/09 06:29:57;;;;;;;122.93;61.35;;;;;;;17.06;94.39;102637.25;5114794;28;20024;-48
2022/07/09 06:32:22;;;;;;;127.13;64.57;;;;;;;17.20;95.71;102637.69;5114903;28;20471;-44
2022/07/09 06:34:48;;;;;;;117.20;57.42;;;;;;;17.34;95.19;102638.13;5114292;28;20120;-47
2022/07/09 06:37:13;;;;;;;117.22;59.47;;;;;;;17.49;93.64;102642.00;5114443;28;20039;-47
2022/07/09 06:39:44;;;;;;;116.20;58.63;;;;;;;17.56;93.15;102644.84;5114491;28;20475;-45
2022/07/09 06:42:09;;;;;;;110.43;56.97;;;;;;;17.72;91.66;102642.69;5114439;28;20030;-46
2022/07/09 06:44:35;;;;;;;102.32;53.55;;;;;;;17.79;90.60;102639.41;5114547;28;20106;-48
2022/07/09 06:47:01;;;;;;;103.68;50.65;;;;;;;17.85;88.89;102638.69;5114606;28;20016;-48
2022/07/09 06:49:26;;;;;;;92.22;47.97;;;;;;;17.78;89.11;102637.66;5113671;28;20059;-48
2022/07/09 06:51:51;;;;;;;94.28;49.95;;;;;;;17.72;88.69;102640.94;5112392;28;20475;-46
2022/07/09 06:54:16;;;;;;;100.00;50.55;;;;;;;17.66;89.24;102635.53;5114106;28;20026;-48
2022/07/09 06:56:42;;;;;;;100.22;50.30;;;;;;;17.60;89.51;102630.19;5113700;28;20020;-47
2022/07/09 06:59:07;;;;;;;98.28;51.95;;;;;;;17.65;90.22;102633.81;5114321;28;20027;-48
2022/07/09 07:01:32;;;;;;;97.32;50.35;;;;;;;17.86;90.16;102640.47;5114432;28;20042;-48
2022/07/09 07:03:58;;;;;;;86.68;45.97;;;;;;;18.04;88.67;102637.53;5113697;28;20044;-46
2022/07/09 07:06:23;;;;;;;88.78;47.97;;;;;;;18.15;87.90;102632.59;5113977;28;20023;-47
2022/07/09 07:08:48;;;;;;;99.03;49.47;;;;;;;18.22;87.27;102630.19;5114198;28;20020;-46
2022/07/09 07:11:14;;;;;;;98.13;51.20;;;;;;;18.37;88.11;102637.53;5113768;28;20036;-48
2022/07/09 07:13:39;;;;;;;86.85;46.00;;;;;;;18.45;86.74;102634.22;5114008;28;20026;-49
2022/07/09 07:16:05;;;;;;;75.32;42.90;;;;;;;18.59;85.36;102638.06;5114020;28;20031;-47
2022/07/09 07:18:30;;;;;;;78.82;43.40;;;;;;;18.76;84.49;102633.28;5113459;28;20028;-49
2022/07/09 07:20:55;;;;;;;75.93;40.88;;;;;;;18.88;83.26;102632.69;5113766;28;20027;-48
2022/07/09 07:23:20;;;;;;;73.28;38.50;;;;;;;19.00;84.04;102627.75;5113347;28;20080;-45
2022/07/09 07:25:46;;;;;;;67.82;37.08;;;;;;;19.08;82.78;102623.59;5113843;28;20026;-47
2022/07/09 07:28:11;;;;;;;68.68;36.80;;;;;;;19.11;82.00;102635.88;5113873;28;20084;-47
2022/07/09 07:30:36;;;;;;;71.53;35.35;;;;;;;19.27;81.96;102633.59;5113240;28;20387;-45
2022/07/09 07:33:02;;;;;;;61.95;33.00;;;;;;;19.34;80.14;102640.69;5113376;28;20024;-48
2022/07/09 07:35:27;;;;;;;64.85;35.35;;;;;;;19.35;80.77;102638.16;5113752;28;20027;-45
2022/07/09 07:37:53;;;;;;;69.43;34.97;;;;;;;19.41;80.59;102634.78;5113014;28;20415;-47
2022/07/09 07:40:18;;;;;;;60.42;35.08;;;;;;;19.27;78.99;102637.06;5113594;28;20024;-47
2022/07/09 07:42:43;;;;;;;61.60;35.47;;;;;;;19.26;79.20;102643.16;5113435;28;20036;-49
2022/07/09 07:45:09;;;;;;;68.70;35.70;;;;;;;19.56;80.48;102637.72;5112995;28;20024;-48
2022/07/09 07:47:35;;;;;;;67.38;34.85;;;;;;;19.56;78.75;102636.81;5113646;28;20023;-46
2022/07/09 07:50:00;;;;;;;64.03;35.55;;;;;;;19.72;77.99;102640.66;5113450;28;20459;-46
2022/07/09 07:52:25;;;;;;;67.18;35.00;;;;;;;20.00;79.36;102644.72;5112794;28;20080;-47
2022/07/09 07:54:50;;;;;;;65.05;35.67;;;;;;;20.03;76.74;102638.66;5113504;28;20028;-47
2022/07/09 07:57:16;;;;;;;65.97;34.58;;;;;;;20.30;77.79;102640.91;5113486;28;20089;-48
2022/07/09 07:59:41;;;;;;;61.70;34.45;;;;;;;20.31;77.50;102640.03;5112722;28;20115;-47
2022/07/09 08:02:07;;;;;;;60.65;33.05;;;;;;;20.53;75.78;102641.28;5112975;28;20027;-47
2022/07/09 08:04:32;;;;;;;64.32;34.22;;;;;;;20.58;75.01;102638.75;5113158;28;20065;-48
2022/07/09 08:06:57;;;;;;;56.78;32.35;;;;;;;20.64;73.49;102636.22;5112120;28;20534;-48
2022/07/09 08:09:23;;;;;;;59.55;32.88;;;;;;;20.85;75.75;102634.81;5113125;28;20022;-49
2022/07/09 08:11:48;;;;;;;58.08;33.35;;;;;;;20.75;72.99;102625.97;5113181;28;20024;-48
2022/07/09 08:14:13;;;;;;;57.63;32.03;;;;;;;21.04;72.38;102615.03;5112812;28;20028;-47
2022/07/09 08:16:39;;;;;;;56.20;31.63;;;;;;;21.01;71.81;102615.84;5112933;28;20058;-47
2022/07/09 08:19:04;;;;;;;54.88;30.52;;;;;;;21.31;72.38;102614.50;5113125;28;20024;-49
2022/07/09 08:21:29;;;;;;;55.58;31.15;;;;;;;21.43;71.62;102605.91;5112408;28;20526;-48
2022/07/09 08:23:55;;;;;;;54.03;30.90;;;;;;;21.40;70.47;102605.03;5113123;28;20031;-47
2022/07/09 08:26:22;;;;;;;48.72;27.60;;;;;;;21.46;70.46;102594.56;5113068;28;20028;-45
2022/07/09 08:28:48;;;;;;;49.70;28.10;;;;;;;21.38;69.41;102595.38;5112352;28;20027;-48
2022/07/09 08:31:17;;;;;;;48.20;28.00;;;;;;;21.30;68.91;102583.91;5112997;28;20020;-47
2022/07/09 08:33:42;;;;;;;44.15;25.25;;;;;;;21.26;68.82;102587.34;5112419;28;20038;-44
2022/07/09 08:36:08;;;;;;;46.65;27.92;;;;;;;21.40;68.81;102589.28;5112647;28;20020;-49
2022/07/09 08:38:33;;;;;;;54.83;28.15;;;;;;;21.59;68.11;102586.03;5113152;28;20034;-47
2022/07/09 08:41:00;;;;;;;48.25;28.55;;;;;;;21.69;66.86;102581.75;5112474;28;20028;-47
2022/07/09 08:43:27;;;;;;;51.28;28.35;;;;;;;21.69;66.79;102587.00;5112828;28;20072;-49
2022/07/09 08:45:54;;;;;;;49.42;29.00;;;;;;;21.68;67.42;102582.66;5113124;28;20020;-46
2022/07/09 08:48:19;;;;;;;;;;;;;;;21.90;68.04;102575.88;5112594;28;20538;-48
2022/07/09 08:50:47;;;;;;;43.30;24.10;;;;;;;22.01;65.48;102589.09;5112523;28;20032;-49
2022/07/09 08:53:16;;;;;;;48.95;22.50;;;;;;;22.26;65.79;102586.69;5112723;28;20486;-48
2022/07/09 08:55:41;;;;;;;36.20;23.90;;;;;;;22.42;64.31;102590.38;5112188;28;20417;-48
2022/07/09 08:58:08;;;;;;;47.35;25.13;;;;;;;22.34;62.31;102588.50;5112621;28;20467;-48
2022/07/09 09:00:33;;;;;;;36.85;21.15;;;;;;;22.26;62.42;102587.59;5112674;28;20111;-48
2022/07/09 09:02:58;;;;;;;38.70;21.58;;;;;;;22.36;63.80;102592.09;5112160;28;20123;-47
2022/07/09 09:05:24;;;;;;;46.25;27.35;;;;;;;22.32;62.96;102587.63;5112285;28;20020;-45
2022/07/09 09:07:49;;;;;;;46.88;25.80;;;;;;;22.18;63.68;102591.88;5112949;28;20030;-48
2022/07/09 09:10:27;;;;;;;44.63;27.40;;;;;;;22.19;65.30;102594.53;5112003;28;20066;-48
2022/07/09 09:13:00;;;;;;;44.70;26.38;;;;;;;22.03;65.29;102592.63;5112589;28;20269;-45
2022/07/09 09:15:29;;;;;;;47.45;24.98;;;;;;;22.00;63.63;102589.94;5112700;28;20023;-47
2022/07/09 09:17:54;;;;;;;44.63;25.55;;;;;;;22.08;63.48;102590.91;5111935;28;20023;-45
2022/07/09 09:20:20;;;;;;;44.67;25.63;;;;;;;22.02;65.47;102588.22;5116485;28;20028;-47
2022/07/09 09:22:53;;;;;;;38.00;23.00;;;;;;;21.92;65.47;102589.00;5116393;28;20106;-48
2022/07/09 09:25:20;;;;;;;37.83;23.77;;;;;;;21.88;65.51;102580.22;5115863;28;20515;-47
2022/07/09 09:27:56;;;;;;;42.50;24.90;;;;;;;22.09;66.46;102589.16;5116376;28;20080;-47
2022/07/09 09:30:23;;;;;;;100.55;57.47;;;;;;;22.04;65.00;102590.00;5115574;28;20016;-44
2022/07/09 09:32:57;;;;;;;83.33;45.03;;;;;;;22.07;66.11;102589.16;5116192;28;20045;-46
2022/07/09 09:35:26;;;;;;;81.82;47.58;;;;;;;22.04;65.74;102587.38;5116179;28;20031;-47
2022/07/09 09:37:53;;;;;;;102.82;84.97;;;;;;;22.19;65.88;102580.50;5115675;28;20065;-48
2022/07/09 09:40:18;;;;;;;52.28;37.00;;;;;;;22.36;65.31;102585.94;5115574;28;20475;-48
2022/07/09 09:42:45;;;;;;;39.75;24.42;;;;;;;22.40;65.01;102578.97;5115960;28;20032;-47
2022/07/09 09:45:15;;;;;;;44.75;24.42;;;;;;;22.26;64.91;102581.44;5115534;28;20088;-47
2022/07/09 09:47:51;;;;;;;41.97;23.65;;;;;;;22.13;65.00;102577.81;5115724;28;20470;-47
2022/07/09 09:50:20;;;;;;;38.47;23.05;;;;;;;22.06;65.78;102581.28;5115945;28;20020;-46
2022/07/09 09:52:47;;;;;;;37.92;22.15;;;;;;;22.07;66.78;102588.28;5115287;28;20059;-48
2022/07/09 09:55:14;;;;;;;37.17;21.75;;;;;;;21.85;66.50;102585.44;5115349;28;20024;-47
2022/07/09 09:57:40;;;;;;;43.60;22.43;;;;;;;21.64;66.04;102589.59;5115585;28;20429;-47
2022/07/09 10:00:07;;;;;;;39.10;23.48;;;;;;;21.60;66.76;102582.56;5114936;28;20312;-47
2022/07/09 10:02:33;;;;;;;35.17;21.83;;;;;;;21.84;68.89;102581.06;5115250;28;20028;-44
2022/07/09 10:04:59;;;;;;;40.20;21.08;;;;;;;22.22;67.01;102577.94;5115572;28;20540;-48
2022/07/09 10:07:25;;;;;;;30.23;20.58;;;;;;;22.55;64.87;102570.31;5114757;28;20059;-48
2022/07/09 10:09:58;;;;;;;32.58;18.17;;;;;;;22.57;63.34;102572.09;5115370;28;20158;-47
2022/07/09 10:12:34;;;;;;;32.25;17.15;;;;;;;22.35;64.48;102585.03;5114869;28;20501;-46
2022/07/09 10:15:00;;;;;;;29.95;17.23;;;;;;;21.94;65.65;102588.16;5115297;28;20023;-44
2022/07/09 10:17:26;;;;;;;27.70;18.65;;;;;;;21.71;66.10;102586.16;5115263;28;20072;-47
2022/07/09 10:19:57;;;;;;;29.50;18.00;;;;;;;21.77;66.42;102587.09;5114837;28;20157;-46
2022/07/09 10:22:37;;;;;;;30.50;18.13;;;;;;;22.61;66.66;102576.50;5114850;28;20030;-48
2022/07/09 10:25:04;;;;;;;25.60;15.50;;;;;;;23.21;62.39;102568.09;5115189;28;20479;-48
2022/07/09 10:27:29;;;;;;;23.80;15.30;;;;;;;23.22;60.70;102569.84;5114447;28;20070;-44
2022/07/09 10:29:59;;;;;;;23.27;14.60;;;;;;;23.18;61.28;102581.22;5114465;28;20077;-45
2022/07/09 10:32:32;;;;;;;34.08;16.73;;;;;;;23.11;61.59;102585.56;5114974;28;20028;-44
2022/07/09 10:34:58;;;;;;;25.45;15.88;;;;;;;23.14;63.78;102571.53;5114493;28;20020;-45
2022/07/09 10:37:33;;;;;;;25.67;16.00;;;;;;;23.14;63.94;102571.53;5114839;28;20084;-47
2022/07/09 10:40:09;;;;;;;27.73;14.93;;;;;;;23.54;62.48;102561.19;5114989;28;20080;-44
2022/07/09 10:42:34;;;;;;;23.45;13.57;;;;;;;24.53;56.84;102566.56;5113972;28;20069;-45
2022/07/09 10:45:00;;;;;;;20.92;9.38;;;;;;;25.27;54.21;102560.22;5114583;28;20028;-44
2022/07/09 10:47:38;;;;;;;15.13;8.10;;;;;;;25.80;54.69;102563.44;5114106;28;20490;-44
2022/07/09 10:50:05;;;;;;;14.07;6.68;;;;;;;26.17;52.74;102575.53;5114350;28;20383;-44
2022/07/09 10:52:31;;;;;;;15.82;7.68;;;;;;;27.25;50.24;102551.44;5114723;28;20087;-45
2022/07/09 10:54:56;;;;;;;11.35;7.00;;;;;;;27.48;48.48;102566.19;5114056;28;20055;-44
2022/07/09 10:57:21;;;;;;;10.65;6.85;;;;;;;27.34;46.78;102573.41;5114287;28;20023;-44
2022/07/09 10:59:47;;;;;;;12.20;6.50;;;;;;;27.28;48.04;102563.75;5114258;28;20024;-45